createdAt,value
2023-03-22T00:01:41.516Z,14.70
2023-03-22T00:04:11.556Z,14.60
2023-03-22T00:06:41.963Z,14.50
2023-03-22T00:09:12.176Z,14.50
2023-03-22T00:11:42.919Z,14.50
2023-03-22T00:14:13.137Z,14.50
2023-03-22T00:16:46.632Z,14.60
2023-03-22T00:19:16.542Z,14.60
2023-03-22T00:21:47.593Z,14.70
2023-03-22T00:24:18.001Z,14.70
2023-03-22T00:26:48.743Z,14.60
2023-03-22T00:29:20.402Z,14.60
2023-03-22T00:31:52.718Z,14.50
2023-03-22T00:34:23.002Z,14.60
2023-03-22T00:36:53.933Z,14.70
2023-03-22T00:39:24.260Z,14.70
2023-03-22T00:41:54.377Z,14.80
2023-03-22T00:44:24.908Z,14.90
2023-03-22T00:46:56.864Z,14.80
2023-03-22T00:49:28.124Z,14.80
2023-03-22T00:51:58.468Z,14.80
2023-03-22T00:54:28.853Z,14.40
2023-03-22T00:56:59.115Z,14.10
2023-03-22T00:59:29.914Z,13.90
2023-03-22T01:02:01.684Z,13.80
2023-03-22T01:04:32.108Z,13.90
2023-03-22T01:07:04.471Z,14.10
2023-03-22T01:09:34.597Z,13.90
2023-03-22T01:12:04.718Z,13.90
2023-03-22T01:14:35.032Z,13.70
2023-03-22T01:17:07.815Z,13.70
2023-03-22T01:19:39.363Z,13.70
2023-03-22T01:22:10.719Z,13.70
2023-03-22T01:24:41.142Z,13.80
2023-03-22T01:27:12.086Z,14.00
2023-03-22T01:29:42.548Z,14.00
2023-03-22T01:32:15.580Z,13.90
2023-03-22T01:34:46.229Z,13.80
2023-03-22T01:37:18.293Z,13.90
2023-03-22T01:39:50.044Z,14.00
2023-03-22T01:42:22.933Z,14.00
2023-03-22T01:45:40.662Z,14.10
2023-03-22T01:48:18.274Z,14.10
2023-03-22T01:50:58.104Z,14.10
2023-03-22T01:53:30.379Z,14.10
2023-03-22T01:56:01.101Z,13.90
2023-03-22T01:58:39.008Z,13.80
2023-03-22T02:01:13.073Z,13.70
2023-03-22T02:04:04.133Z,13.70
2023-03-22T02:06:34.443Z,13.90
2023-03-22T02:09:09.988Z,13.90
2023-03-22T02:11:43.109Z,13.90
2023-03-22T02:14:44.739Z,14.00
2023-03-22T02:18:00.223Z,13.90
2023-03-22T02:21:20.932Z,14.00
2023-03-22T02:24:15.111Z,14.00
2023-03-22T02:27:09.815Z,13.90
2023-03-22T02:29:45.771Z,14.00
2023-03-22T02:32:53.972Z,13.90
2023-03-22T02:35:36.303Z,13.80
2023-03-22T02:38:58.325Z,13.70
2023-03-22T02:41:45.025Z,13.80
2023-03-22T02:44:24.938Z,13.90
2023-03-22T02:47:04.931Z,13.90
2023-03-22T02:49:42.002Z,13.90
2023-03-22T02:52:18.278Z,13.80
2023-03-22T02:54:57.401Z,13.90
2023-03-22T02:57:35.534Z,13.70
2023-03-22T03:00:13.311Z,13.60
2023-03-22T03:02:47.418Z,13.40
2023-03-22T03:05:19.590Z,13.40
2023-03-22T03:07:54.412Z,13.30
2023-03-22T03:10:27.300Z,13.40
2023-03-22T03:13:00.131Z,13.50
2023-03-22T03:15:31.933Z,13.60
2023-03-22T03:18:22.223Z,13.50
2023-03-22T03:21:02.905Z,13.30
2023-03-22T03:23:42.427Z,13.40
2023-03-22T03:26:23.033Z,13.40
2023-03-22T03:29:00.105Z,13.30
2023-03-22T03:31:37.543Z,13.10
2023-03-22T03:34:18.047Z,13.20
2023-03-22T03:36:55.937Z,13.30
2023-03-22T03:39:28.524Z,13.40
2023-03-22T03:41:59.754Z,13.40
2023-03-22T03:44:32.153Z,13.40
2023-03-22T03:47:03.571Z,13.40
2023-03-22T03:49:33.811Z,13.30
2023-03-22T03:52:05.458Z,13.20
2023-03-22T03:54:35.477Z,13.10
2023-03-22T03:57:07.847Z,13.10
2023-03-22T03:59:40.829Z,13.10
2023-03-22T04:02:20.092Z,13.10
2023-03-22T04:04:51.323Z,13.10
2023-03-22T04:07:22.857Z,13.10
2023-03-22T04:09:52.721Z,13.00
2023-03-22T04:12:30.268Z,13.00
2023-03-22T04:15:17.488Z,13.00
2023-03-22T04:17:54.365Z,12.80
2023-03-22T04:20:27.460Z,12.90
2023-03-22T04:22:58.693Z,12.90
2023-03-22T04:25:31.016Z,12.90
2023-03-22T04:28:08.059Z,12.80
2023-03-22T04:30:40.307Z,12.70
2023-03-22T04:33:28.554Z,12.60
2023-03-22T04:36:20.288Z,12.60
2023-03-22T04:39:11.617Z,12.80
2023-03-22T04:41:43.775Z,12.70
2023-03-22T04:44:13.893Z,12.80
2023-03-22T04:46:51.708Z,12.80
2023-03-22T04:49:21.920Z,12.70
2023-03-22T04:51:52.449Z,12.60
2023-03-22T04:54:32.913Z,12.60
2023-03-22T04:57:02.913Z,12.70
2023-03-22T04:59:40.521Z,12.70
2023-03-22T05:02:11.965Z,12.60
2023-03-22T05:04:45.464Z,12.60
2023-03-22T05:07:25.714Z,12.60
2023-03-22T05:09:59.204Z,12.50
2023-03-22T05:12:29.335Z,12.40
2023-03-22T05:15:06.643Z,12.20
2023-03-22T05:17:41.860Z,12.30
2023-03-22T05:20:14.235Z,12.20
2023-03-22T05:22:50.910Z,12.20
2023-03-22T05:25:22.782Z,11.90
2023-03-22T05:27:54.820Z,11.90
2023-03-22T05:30:45.780Z,12.10
2023-03-22T05:33:47.291Z,12.20
2023-03-22T05:36:22.227Z,12.10
2023-03-22T05:39:24.385Z,12.00
2023-03-22T05:41:55.024Z,11.90
2023-03-22T05:44:25.034Z,12.10
2023-03-22T05:47:04.502Z,12.10
2023-03-22T05:50:03.184Z,12.20
2023-03-22T05:52:34.750Z,12.30
2023-03-22T05:55:19.281Z,12.20
2023-03-22T05:57:58.311Z,12.30
2023-03-22T06:00:32.629Z,12.40
2023-03-22T06:03:25.899Z,12.20
2023-03-22T06:06:03.165Z,12.30
2023-03-22T06:08:41.699Z,12.30
2023-03-22T06:11:13.049Z,12.40
2023-03-22T06:13:43.316Z,12.50
2023-03-22T06:16:14.847Z,12.70
2023-03-22T06:18:46.060Z,13.00
2023-03-22T06:21:17.502Z,12.90
2023-03-22T06:23:47.426Z,13.10
2023-03-22T06:26:18.980Z,13.30
2023-03-22T06:28:48.997Z,13.40
2023-03-22T06:31:24.026Z,13.60
2023-03-22T06:33:59.149Z,13.60
2023-03-22T06:36:41.463Z,13.70
2023-03-22T06:39:15.357Z,13.90
2023-03-22T06:41:48.146Z,14.00
2023-03-22T06:44:18.270Z,14.00
2023-03-22T06:46:54.222Z,14.00
2023-03-22T06:49:50.446Z,14.20
2023-03-22T06:52:35.417Z,14.10
2023-03-22T06:55:10.149Z,14.10
2023-03-22T06:57:40.273Z,14.20
2023-03-22T07:00:13.959Z,14.40
2023-03-22T07:02:43.992Z,14.50
2023-03-22T07:05:49.839Z,14.50
2023-03-22T07:08:21.927Z,14.60
2023-03-22T07:10:54.473Z,14.60
2023-03-22T07:13:26.753Z,14.60
2023-03-22T07:16:03.310Z,14.50
2023-03-22T07:18:53.201Z,14.50
2023-03-22T07:21:23.320Z,14.50
2023-03-22T07:24:00.203Z,14.60
2023-03-22T07:26:32.793Z,14.80
2023-03-22T07:29:04.643Z,14.80
2023-03-22T07:31:38.146Z,14.90
2023-03-22T07:34:28.633Z,15.00
2023-03-22T07:37:11.930Z,15.00
2023-03-22T07:39:45.463Z,15.10
2023-03-22T07:42:15.805Z,15.30
2023-03-22T07:44:47.663Z,15.40
2023-03-22T07:47:37.663Z,15.40
2023-03-22T07:50:39.322Z,15.40
2023-03-22T07:53:11.259Z,15.50
2023-03-22T07:55:44.453Z,15.50
2023-03-22T07:58:15.450Z,15.50
2023-03-22T08:00:46.113Z,15.80
2023-03-22T08:03:36.640Z,15.90
2023-03-22T08:06:14.755Z,15.90
2023-03-22T08:08:45.049Z,15.90
2023-03-22T08:11:17.040Z,16.00
2023-03-22T08:13:47.439Z,16.00
2023-03-22T08:16:17.430Z,15.90
2023-03-22T08:18:49.828Z,16.00
2023-03-22T08:21:20.359Z,16.10
2023-03-22T08:23:55.699Z,16.30
2023-03-22T08:26:43.119Z,16.40
2023-03-22T08:29:25.425Z,16.50
2023-03-22T08:31:56.532Z,16.60
2023-03-22T08:34:26.967Z,16.80
2023-03-22T08:36:57.320Z,16.70
2023-03-22T08:39:28.765Z,16.90
2023-03-22T08:42:23.870Z,19.60
2023-03-22T08:44:54.294Z,17.20
2023-03-22T08:47:27.182Z,17.20
2023-03-22T08:50:02.620Z,17.40
2023-03-22T08:53:01.114Z,17.30
2023-03-22T08:55:37.995Z,17.40
2023-03-22T08:58:17.320Z,17.30
2023-03-22T09:01:13.431Z,17.60
2023-03-22T09:03:51.857Z,17.50
2023-03-22T09:06:21.925Z,17.70
2023-03-22T09:08:52.603Z,17.80
2023-03-22T09:11:26.217Z,17.90
2023-03-22T09:13:58.379Z,17.90
2023-03-22T09:16:28.738Z,18.00
2023-03-22T09:18:59.640Z,18.10
2023-03-22T09:21:30.882Z,18.20
2023-03-22T09:24:16.870Z,18.30
2023-03-22T09:26:50.588Z,18.50
2023-03-22T09:29:23.772Z,18.40
2023-03-22T09:31:54.119Z,18.30
2023-03-22T09:34:29.118Z,18.50
2023-03-22T09:37:03.029Z,18.70
2023-03-22T09:39:44.935Z,18.50
2023-03-22T09:42:30.307Z,18.70
2023-03-22T09:45:06.368Z,18.70
2023-03-22T09:47:44.857Z,19.00
2023-03-22T09:50:20.752Z,19.00
2023-03-22T09:52:51.869Z,18.90
2023-03-22T09:55:25.069Z,19.10
2023-03-22T09:58:05.322Z,19.30
2023-03-22T10:00:42.477Z,19.30
2023-03-22T10:03:21.957Z,19.60
2023-03-22T10:05:55.972Z,19.50
2023-03-22T10:08:46.485Z,19.50
2023-03-22T10:11:27.221Z,19.60
2023-03-22T10:14:03.991Z,19.80
2023-03-22T10:16:37.459Z,19.80
2023-03-22T10:19:15.490Z,19.90
2023-03-22T10:21:48.484Z,19.60
2023-03-22T10:24:22.393Z,19.20
2023-03-22T10:26:53.631Z,19.00
2023-03-22T10:29:28.274Z,19.40
2023-03-22T10:32:15.084Z,19.80
2023-03-22T10:34:45.898Z,19.80
2023-03-22T10:37:19.410Z,19.70
2023-03-22T10:39:52.610Z,19.80
2023-03-22T10:42:27.224Z,19.50
2023-03-22T10:45:01.132Z,19.60
2023-03-22T10:47:37.916Z,19.70
2023-03-22T10:50:14.487Z,19.40
2023-03-22T10:52:52.068Z,19.80
2023-03-22T10:55:22.207Z,19.50
2023-03-22T10:58:01.292Z,20.10
2023-03-22T11:00:33.203Z,20.20
2023-03-22T11:03:07.588Z,20.00
2023-03-22T11:05:38.156Z,20.40
2023-03-22T11:08:09.594Z,20.10
2023-03-22T11:10:40.086Z,20.00
2023-03-22T11:13:19.159Z,20.00
2023-03-22T11:15:56.831Z,20.30
2023-03-22T11:18:33.916Z,20.00
2023-03-22T11:21:09.466Z,20.80
2023-03-22T11:23:43.060Z,20.80
2023-03-22T11:26:15.527Z,21.10
2023-03-22T11:28:49.241Z,21.30
2023-03-22T11:31:22.291Z,20.60
2023-03-22T11:34:00.140Z,21.50
2023-03-22T11:36:31.484Z,21.40
2023-03-22T11:39:03.643Z,20.60
2023-03-22T11:41:38.370Z,20.60
2023-03-22T11:44:12.172Z,20.50
2023-03-22T11:46:50.498Z,21.10
2023-03-22T11:49:23.055Z,21.40
2023-03-22T11:51:55.156Z,21.20
2023-03-22T11:54:33.547Z,21.00
2023-03-22T11:57:11.035Z,21.30
2023-03-22T11:59:42.285Z,21.20
2023-03-22T12:02:21.789Z,21.00
2023-03-22T12:04:57.811Z,21.20
2023-03-22T12:07:29.730Z,21.70
2023-03-22T12:10:08.369Z,22.10
2023-03-22T12:12:44.017Z,22.60
2023-03-22T12:15:21.231Z,21.90
2023-03-22T12:17:56.601Z,21.70
2023-03-22T12:20:39.193Z,22.30
2023-03-22T12:23:17.654Z,23.00
2023-03-22T12:25:52.515Z,22.00
2023-03-22T12:28:25.473Z,22.10
2023-03-22T12:30:58.991Z,22.00
2023-03-22T12:33:31.657Z,21.90
2023-03-22T12:36:07.240Z,22.40
2023-03-22T12:38:42.434Z,23.70
2023-03-22T12:41:15.349Z,24.00
2023-03-22T12:43:51.781Z,23.20
2023-03-22T12:46:25.915Z,22.40
2023-03-22T12:49:03.451Z,23.40
2023-03-22T12:51:35.045Z,22.20
2023-03-22T12:54:06.110Z,22.40
2023-03-22T12:56:41.946Z,22.70
2023-03-22T12:59:18.713Z,22.70
2023-03-22T13:01:56.105Z,23.00
2023-03-22T13:04:33.314Z,23.00
2023-03-22T13:07:16.833Z,23.00
2023-03-22T13:09:47.755Z,23.70
2023-03-22T13:12:36.932Z,24.20
2023-03-22T13:15:41.315Z,23.70
2023-03-22T13:18:40.050Z,23.20
2023-03-22T13:21:17.018Z,24.60
2023-03-22T13:24:02.708Z,23.90
2023-03-22T13:26:41.530Z,23.50
2023-03-22T13:29:17.693Z,23.20
2023-03-22T13:31:59.025Z,24.40
2023-03-22T13:34:40.560Z,25.10
2023-03-22T13:37:25.725Z,25.80
2023-03-22T13:40:02.570Z,26.20
2023-03-22T13:42:38.131Z,25.20
2023-03-22T13:45:31.837Z,23.50
2023-03-22T13:48:08.210Z,24.20
2023-03-22T13:50:39.718Z,24.80
2023-03-22T13:53:17.850Z,24.00
2023-03-22T13:56:01.376Z,23.90
2023-03-22T13:58:39.080Z,25.20
2023-03-22T14:01:16.629Z,24.90
2023-03-22T14:03:48.685Z,24.30
2023-03-22T14:06:24.082Z,23.90
2023-03-22T14:08:59.926Z,23.90
2023-03-22T14:11:38.367Z,24.60
2023-03-22T14:14:13.689Z,24.50
2023-03-22T14:16:46.270Z,23.80
2023-03-22T14:19:21.310Z,23.70
